sensor_id;sensor_type;location;lat;lon;timestamp;P1;durP1;ratioP1;P2;durP2;ratioP2
36715;SDS011;22699;51.034;3.730;2023-07-20T00:01:23;9.63;;;5.50;;
36715;SDS011;22699;51.034;3.730;2023-07-20T00:03:49;17.08;;;7.13;;
36715;SDS011;22699;51.034;3.730;2023-07-20T00:06:26;13.25;;;6.28;;
36715;SDS011;22699;51.034;3.730;2023-07-20T00:08:54;11.05;;;5.95;;
36715;SDS011;22699;51.034;3.730;2023-07-20T00:11:21;12.35;;;6.28;;
36715;SDS011;22699;51.034;3.730;2023-07-20T00:13:51;12.13;;;6.35;;
36715;SDS011;22699;51.034;3.730;2023-07-20T00:16:17;12.90;;;6.40;;
36715;SDS011;22699;51.034;3.730;2023-07-20T00:18:44;9.75;;;6.15;;
36715;SDS011;22699;51.034;3.730;2023-07-20T00:21:10;13.45;;;6.70;;
36715;SDS011;22699;51.034;3.730;2023-07-20T00:23:37;11.05;;;6.35;;
36715;SDS011;22699;51.034;3.730;2023-07-20T00:26:03;11.48;;;7.15;;
36715;SDS011;22699;51.034;3.730;2023-07-20T00:28:28;11.65;;;6.88;;
36715;SDS011;22699;51.034;3.730;2023-07-20T00:30:58;13.23;;;6.97;;
36715;SDS011;22699;51.034;3.730;2023-07-20T00:33:25;12.15;;;5.93;;
36715;SDS011;22699;51.034;3.730;2023-07-20T00:35:50;11.10;;;7.05;;
36715;SDS011;22699;51.034;3.730;2023-07-20T00:38:16;11.85;;;6.40;;
36715;SDS011;22699;51.034;3.730;2023-07-20T00:40:41;11.90;;;7.55;;
36715;SDS011;22699;51.034;3.730;2023-07-20T00:43:07;12.63;;;5.85;;
36715;SDS011;22699;51.034;3.730;2023-07-20T00:45:34;12.18;;;7.40;;
36715;SDS011;22699;51.034;3.730;2023-07-20T00:48:01;10.50;;;6.82;;
36715;SDS011;22699;51.034;3.730;2023-07-20T00:50:32;13.85;;;6.68;;
36715;SDS011;22699;51.034;3.730;2023-07-20T00:52:58;11.55;;;6.97;;
36715;SDS011;22699;51.034;3.730;2023-07-20T00:55:25;15.98;;;8.20;;
36715;SDS011;22699;51.034;3.730;2023-07-20T00:57:52;17.73;;;8.70;;
36715;SDS011;22699;51.034;3.730;2023-07-20T01:00:17;14.23;;;7.40;;
36715;SDS011;22699;51.034;3.730;2023-07-20T01:02:45;11.25;;;7.07;;
36715;SDS011;22699;51.034;3.730;2023-07-20T01:05:11;13.88;;;7.65;;
36715;SDS011;22699;51.034;3.730;2023-07-20T01:07:58;13.38;;;7.75;;
36715;SDS011;22699;51.034;3.730;2023-07-20T01:10:34;14.85;;;7.57;;
36715;SDS011;22699;51.034;3.730;2023-07-20T01:13:06;12.85;;;7.60;;
36715;SDS011;22699;51.034;3.730;2023-07-20T01:15:34;11.70;;;7.90;;
36715;SDS011;22699;51.034;3.730;2023-07-20T01:18:00;18.35;;;8.23;;
36715;SDS011;22699;51.034;3.730;2023-07-20T01:20:26;10.75;;;8.32;;
36715;SDS011;22699;51.034;3.730;2023-07-20T01:33:46;13.57;;;8.18;;
36715;SDS011;22699;51.034;3.730;2023-07-20T01:36:13;15.35;;;8.23;;
36715;SDS011;22699;51.034;3.730;2023-07-20T01:38:39;14.60;;;9.00;;
36715;SDS011;22699;51.034;3.730;2023-07-20T01:41:06;18.58;;;9.65;;
36715;SDS011;22699;51.034;3.730;2023-07-20T01:43:32;15.57;;;8.63;;
36715;SDS011;22699;51.034;3.730;2023-07-20T01:46:00;15.38;;;8.40;;
36715;SDS011;22699;51.034;3.730;2023-07-20T01:48:25;12.70;;;9.23;;
36715;SDS011;22699;51.034;3.730;2023-07-20T01:50:51;15.10;;;8.38;;
36715;SDS011;22699;51.034;3.730;2023-07-20T01:53:17;16.20;;;8.55;;
36715;SDS011;22699;51.034;3.730;2023-07-20T01:55:42;15.00;;;8.90;;
36715;SDS011;22699;51.034;3.730;2023-07-20T01:58:08;15.65;;;9.23;;
36715;SDS011;22699;51.034;3.730;2023-07-20T02:00:34;14.65;;;9.25;;
36715;SDS011;22699;51.034;3.730;2023-07-20T02:03:02;14.77;;;8.65;;
36715;SDS011;22699;51.034;3.730;2023-07-20T02:05:27;14.15;;;9.30;;
36715;SDS011;22699;51.034;3.730;2023-07-20T02:07:53;15.70;;;9.43;;
36715;SDS011;22699;51.034;3.730;2023-07-20T02:10:19;17.45;;;9.45;;
36715;SDS011;22699;51.034;3.730;2023-07-20T02:12:45;16.33;;;9.50;;
36715;SDS011;22699;51.034;3.730;2023-07-20T02:15:11;16.33;;;9.98;;
36715;SDS011;22699;51.034;3.730;2023-07-20T02:17:38;13.90;;;8.95;;
36715;SDS011;22699;51.034;3.730;2023-07-20T02:20:06;16.88;;;9.57;;
36715;SDS011;22699;51.034;3.730;2023-07-20T02:22:35;14.95;;;8.98;;
36715;SDS011;22699;51.034;3.730;2023-07-20T02:25:03;15.68;;;9.45;;
36715;SDS011;22699;51.034;3.730;2023-07-20T02:27:36;13.77;;;9.48;;
36715;SDS011;22699;51.034;3.730;2023-07-20T02:30:03;14.43;;;9.45;;
36715;SDS011;22699;51.034;3.730;2023-07-20T02:32:29;14.30;;;10.00;;
36715;SDS011;22699;51.034;3.730;2023-07-20T02:34:55;15.30;;;10.10;;
36715;SDS011;22699;51.034;3.730;2023-07-20T02:37:24;13.38;;;8.80;;
36715;SDS011;22699;51.034;3.730;2023-07-20T02:39:50;17.40;;;10.20;;
36715;SDS011;22699;51.034;3.730;2023-07-20T02:42:16;16.60;;;10.13;;
36715;SDS011;22699;51.034;3.730;2023-07-20T02:44:43;15.40;;;10.25;;
36715;SDS011;22699;51.034;3.730;2023-07-20T02:47:10;17.20;;;9.57;;
36715;SDS011;22699;51.034;3.730;2023-07-20T02:49:36;14.68;;;10.32;;
36715;SDS011;22699;51.034;3.730;2023-07-20T02:52:02;15.27;;;8.85;;
36715;SDS011;22699;51.034;3.730;2023-07-20T02:54:28;15.60;;;9.43;;
36715;SDS011;22699;51.034;3.730;2023-07-20T02:56:55;15.05;;;9.82;;
36715;SDS011;22699;51.034;3.730;2023-07-20T02:59:20;21.30;;;9.57;;
36715;SDS011;22699;51.034;3.730;2023-07-20T03:01:46;14.45;;;9.77;;
36715;SDS011;22699;51.034;3.730;2023-07-20T03:04:12;12.65;;;8.73;;
36715;SDS011;22699;51.034;3.730;2023-07-20T03:06:37;14.77;;;8.93;;
36715;SDS011;22699;51.034;3.730;2023-07-20T03:09:03;11.60;;;7.82;;
36715;SDS011;22699;51.034;3.730;2023-07-20T03:11:29;15.68;;;9.18;;
36715;SDS011;22699;51.034;3.730;2023-07-20T03:13:55;12.60;;;8.43;;
36715;SDS011;22699;51.034;3.730;2023-07-20T03:16:23;15.23;;;10.18;;
36715;SDS011;22699;51.034;3.730;2023-07-20T03:18:50;16.05;;;8.63;;
36715;SDS011;22699;51.034;3.730;2023-07-20T03:21:16;14.10;;;8.95;;
36715;SDS011;22699;51.034;3.730;2023-07-20T03:23:41;11.27;;;8.20;;
36715;SDS011;22699;51.034;3.730;2023-07-20T03:26:07;20.25;;;9.00;;
36715;SDS011;22699;51.034;3.730;2023-07-20T03:28:34;13.65;;;9.25;;
36715;SDS011;22699;51.034;3.730;2023-07-20T03:31:03;17.42;;;9.57;;
36715;SDS011;22699;51.034;3.730;2023-07-20T03:33:30;14.98;;;10.18;;
36715;SDS011;22699;51.034;3.730;2023-07-20T03:35:56;14.88;;;8.80;;
36715;SDS011;22699;51.034;3.730;2023-07-20T03:38:23;14.43;;;9.55;;
36715;SDS011;22699;51.034;3.730;2023-07-20T03:40:50;10.73;;;8.02;;
36715;SDS011;22699;51.034;3.730;2023-07-20T03:43:17;9.82;;;8.63;;
36715;SDS011;22699;51.034;3.730;2023-07-20T03:45:44;12.90;;;9.40;;
36715;SDS011;22699;51.034;3.730;2023-07-20T03:48:10;10.52;;;8.13;;
36715;SDS011;22699;51.034;3.730;2023-07-20T03:50:38;12.50;;;8.32;;
36715;SDS011;22699;51.034;3.730;2023-07-20T03:53:03;11.13;;;7.85;;
36715;SDS011;22699;51.034;3.730;2023-07-20T03:55:30;12.32;;;9.02;;
36715;SDS011;22699;51.034;3.730;2023-07-20T03:57:55;11.73;;;8.95;;
36715;SDS011;22699;51.034;3.730;2023-07-20T04:00:21;13.63;;;8.88;;
36715;SDS011;22699;51.034;3.730;2023-07-20T04:02:47;10.43;;;8.27;;
36715;SDS011;22699;51.034;3.730;2023-07-20T04:05:12;14.38;;;9.35;;
36715;SDS011;22699;51.034;3.730;2023-07-20T04:07:38;9.77;;;8.07;;
36715;SDS011;22699;51.034;3.730;2023-07-20T04:10:04;12.60;;;8.40;;
36715;SDS011;22699;51.034;3.730;2023-07-20T04:12:30;12.90;;;8.88;;
36715;SDS011;22699;51.034;3.730;2023-07-20T04:14:55;13.05;;;9.90;;
36715;SDS011;22699;51.034;3.730;2023-07-20T04:17:21;13.70;;;9.05;;
36715;SDS011;22699;51.034;3.730;2023-07-20T04:19:47;12.02;;;9.15;;
36715;SDS011;22699;51.034;3.730;2023-07-20T04:22:12;11.02;;;8.90;;
36715;SDS011;22699;51.034;3.730;2023-07-20T04:24:41;14.13;;;9.48;;
36715;SDS011;22699;51.034;3.730;2023-07-20T04:27:07;12.13;;;8.77;;
36715;SDS011;22699;51.034;3.730;2023-07-20T04:29:33;13.52;;;8.65;;
36715;SDS011;22699;51.034;3.730;2023-07-20T04:31:59;11.25;;;9.57;;
36715;SDS011;22699;51.034;3.730;2023-07-20T04:34:24;11.07;;;8.48;;
36715;SDS011;22699;51.034;3.730;2023-07-20T04:36:50;10.02;;;8.45;;
36715;SDS011;22699;51.034;3.730;2023-07-20T04:39:15;12.73;;;8.88;;
36715;SDS011;22699;51.034;3.730;2023-07-20T04:41:41;10.40;;;8.98;;
36715;SDS011;22699;51.034;3.730;2023-07-20T04:44:07;13.57;;;10.10;;
36715;SDS011;22699;51.034;3.730;2023-07-20T04:46:32;9.85;;;8.77;;
36715;SDS011;22699;51.034;3.730;2023-07-20T04:48:58;11.68;;;8.50;;
36715;SDS011;22699;51.034;3.730;2023-07-20T04:51:23;9.05;;;8.15;;
36715;SDS011;22699;51.034;3.730;2023-07-20T04:53:49;8.80;;;7.72;;
36715;SDS011;22699;51.034;3.730;2023-07-20T04:56:15;9.07;;;8.10;;
36715;SDS011;22699;51.034;3.730;2023-07-20T04:58:41;8.57;;;7.20;;
36715;SDS011;22699;51.034;3.730;2023-07-20T05:01:07;9.95;;;8.20;;
36715;SDS011;22699;51.034;3.730;2023-07-20T05:03:33;10.25;;;7.85;;
36715;SDS011;22699;51.034;3.730;2023-07-20T05:05:59;8.07;;;7.25;;
36715;SDS011;22699;51.034;3.730;2023-07-20T05:08:25;7.82;;;5.65;;
36715;SDS011;22699;51.034;3.730;2023-07-20T05:10:50;9.60;;;7.13;;
36715;SDS011;22699;51.034;3.730;2023-07-20T05:13:16;9.15;;;6.65;;
36715;SDS011;22699;51.034;3.730;2023-07-20T05:15:42;7.93;;;5.97;;
36715;SDS011;22699;51.034;3.730;2023-07-20T05:18:07;11.35;;;7.65;;
36715;SDS011;22699;51.034;3.730;2023-07-20T05:20:34;11.55;;;7.32;;
36715;SDS011;22699;51.034;3.730;2023-07-20T05:23:00;7.03;;;5.95;;
36715;SDS011;22699;51.034;3.730;2023-07-20T05:25:26;8.77;;;6.20;;
36715;SDS011;22699;51.034;3.730;2023-07-20T05:27:52;9.77;;;7.45;;
36715;SDS011;22699;51.034;3.730;2023-07-20T05:30:17;10.35;;;6.35;;
36715;SDS011;22699;51.034;3.730;2023-07-20T05:32:44;7.05;;;5.25;;
36715;SDS011;22699;51.034;3.730;2023-07-20T05:35:16;8.85;;;7.00;;
36715;SDS011;22699;51.034;3.730;2023-07-20T05:37:43;8.00;;;6.70;;
36715;SDS011;22699;51.034;3.730;2023-07-20T05:40:09;7.18;;;6.47;;
36715;SDS011;22699;51.034;3.730;2023-07-20T05:42:37;7.70;;;5.95;;
36715;SDS011;22699;51.034;3.730;2023-07-20T05:45:03;6.50;;;5.75;;
36715;SDS011;22699;51.034;3.730;2023-07-20T05:47:30;8.50;;;5.65;;
36715;SDS011;22699;51.034;3.730;2023-07-20T05:49:55;6.00;;;5.13;;
36715;SDS011;22699;51.034;3.730;2023-07-20T05:52:21;6.72;;;5.68;;
36715;SDS011;22699;51.034;3.730;2023-07-20T05:54:47;5.40;;;4.60;;
36715;SDS011;22699;51.034;3.730;2023-07-20T05:57:12;6.93;;;4.68;;
36715;SDS011;22699;51.034;3.730;2023-07-20T05:59:38;5.20;;;4.07;;
36715;SDS011;22699;51.034;3.730;2023-07-20T06:02:06;5.25;;;4.00;;
36715;SDS011;22699;51.034;3.730;2023-07-20T06:04:33;7.70;;;4.50;;
36715;SDS011;22699;51.034;3.730;2023-07-20T06:06:58;7.28;;;3.97;;
36715;SDS011;22699;51.034;3.730;2023-07-20T06:09:24;6.20;;;3.45;;
36715;SDS011;22699;51.034;3.730;2023-07-20T06:11:50;8.57;;;4.30;;
36715;SDS011;22699;51.034;3.730;2023-07-20T06:14:15;3.85;;;3.13;;
36715;SDS011;22699;51.034;3.730;2023-07-20T06:16:41;5.93;;;3.50;;
36715;SDS011;22699;51.034;3.730;2023-07-20T06:19:07;4.68;;;2.80;;
36715;SDS011;22699;51.034;3.730;2023-07-20T06:21:32;3.45;;;2.58;;
36715;SDS011;22699;51.034;3.730;2023-07-20T06:23:58;7.75;;;2.50;;
36715;SDS011;22699;51.034;3.730;2023-07-20T06:26:24;4.22;;;2.88;;
36715;SDS011;22699;51.034;3.730;2023-07-20T06:28:49;4.68;;;2.60;;
36715;SDS011;22699;51.034;3.730;2023-07-20T06:31:16;6.85;;;3.92;;
36715;SDS011;22699;51.034;3.730;2023-07-20T06:33:41;5.65;;;3.60;;
36715;SDS011;22699;51.034;3.730;2023-07-20T06:36:07;4.90;;;3.13;;
36715;SDS011;22699;51.034;3.730;2023-07-20T06:38:33;3.47;;;2.72;;
36715;SDS011;22699;51.034;3.730;2023-07-20T06:41:00;4.75;;;2.95;;
36715;SDS011;22699;51.034;3.730;2023-07-20T06:43:26;5.78;;;4.45;;
36715;SDS011;22699;51.034;3.730;2023-07-20T06:45:52;8.13;;;4.28;;
36715;SDS011;22699;51.034;3.730;2023-07-20T06:48:21;6.78;;;3.88;;
36715;SDS011;22699;51.034;3.730;2023-07-20T06:50:47;5.00;;;2.50;;
36715;SDS011;22699;51.034;3.730;2023-07-20T06:53:12;4.93;;;2.70;;
36715;SDS011;22699;51.034;3.730;2023-07-20T06:55:38;6.55;;;4.05;;
36715;SDS011;22699;51.034;3.730;2023-07-20T06:58:04;6.53;;;3.50;;
36715;SDS011;22699;51.034;3.730;2023-07-20T07:00:30;7.72;;;4.07;;
36715;SDS011;22699;51.034;3.730;2023-07-20T07:02:55;3.95;;;2.58;;
36715;SDS011;22699;51.034;3.730;2023-07-20T07:05:23;5.55;;;1.73;;
36715;SDS011;22699;51.034;3.730;2023-07-20T07:07:50;3.58;;;1.48;;
36715;SDS011;22699;51.034;3.730;2023-07-20T07:10:15;3.67;;;1.65;;
36715;SDS011;22699;51.034;3.730;2023-07-20T07:12:41;4.70;;;1.50;;
36715;SDS011;22699;51.034;3.730;2023-07-20T07:15:08;3.65;;;1.75;;
36715;SDS011;22699;51.034;3.730;2023-07-20T07:17:35;4.68;;;1.90;;
36715;SDS011;22699;51.034;3.730;2023-07-20T07:20:01;6.50;;;2.22;;
36715;SDS011;22699;51.034;3.730;2023-07-20T07:22:29;8.05;;;2.10;;
36715;SDS011;22699;51.034;3.730;2023-07-20T07:24:55;3.35;;;1.75;;
36715;SDS011;22699;51.034;3.730;2023-07-20T07:27:21;5.35;;;1.60;;
36715;SDS011;22699;51.034;3.730;2023-07-20T07:29:47;4.22;;;1.90;;
36715;SDS011;22699;51.034;3.730;2023-07-20T07:32:13;3.75;;;1.40;;
36715;SDS011;22699;51.034;3.730;2023-07-20T07:34:39;4.35;;;1.63;;
36715;SDS011;22699;51.034;3.730;2023-07-20T07:37:05;3.67;;;1.15;;
36715;SDS011;22699;51.034;3.730;2023-07-20T07:39:31;5.90;;;1.20;;
36715;SDS011;22699;51.034;3.730;2023-07-20T07:41:56;4.78;;;0.82;;
36715;SDS011;22699;51.034;3.730;2023-07-20T07:44:22;1.77;;;0.77;;
36715;SDS011;22699;51.034;3.730;2023-07-20T07:46:48;1.88;;;0.70;;
36715;SDS011;22699;51.034;3.730;2023-07-20T07:49:14;1.52;;;0.60;;
36715;SDS011;22699;51.034;3.730;2023-07-20T07:51:40;1.40;;;0.63;;
36715;SDS011;22699;51.034;3.730;2023-07-20T07:54:05;1.50;;;0.65;;
36715;SDS011;22699;51.034;3.730;2023-07-20T07:56:31;1.95;;;0.60;;
36715;SDS011;22699;51.034;3.730;2023-07-20T07:58:56;2.30;;;0.60;;
36715;SDS011;22699;51.034;3.730;2023-07-20T08:01:22;1.08;;;0.60;;
36715;SDS011;22699;51.034;3.730;2023-07-20T08:03:47;1.65;;;0.60;;
36715;SDS011;22699;51.034;3.730;2023-07-20T08:06:13;0.40;;;0.30;;
36715;SDS011;22699;51.034;3.730;2023-07-20T08:08:39;0.80;;;0.50;;
36715;SDS011;22699;51.034;3.730;2023-07-20T08:11:05;2.58;;;0.60;;
36715;SDS011;22699;51.034;3.730;2023-07-20T08:13:31;2.75;;;0.60;;
36715;SDS011;22699;51.034;3.730;2023-07-20T08:15:57;0.68;;;0.52;;
36715;SDS011;22699;51.034;3.730;2023-07-20T08:18:22;3.17;;;0.80;;
36715;SDS011;22699;51.034;3.730;2023-07-20T08:20:48;2.70;;;0.80;;
36715;SDS011;22699;51.034;3.730;2023-07-20T08:23:14;0.93;;;0.68;;
36715;SDS011;22699;51.034;3.730;2023-07-20T08:25:40;1.40;;;0.50;;
36715;SDS011;22699;51.034;3.730;2023-07-20T08:28:09;2.63;;;0.80;;
36715;SDS011;22699;51.034;3.730;2023-07-20T08:30:42;0.95;;;0.50;;
36715;SDS011;22699;51.034;3.730;2023-07-20T08:33:13;4.00;;;0.90;;
36715;SDS011;22699;51.034;3.730;2023-07-20T08:35:39;2.45;;;0.90;;
36715;SDS011;22699;51.034;3.730;2023-07-20T08:38:05;2.33;;;0.68;;
36715;SDS011;22699;51.034;3.730;2023-07-20T08:40:32;3.92;;;0.60;;
36715;SDS011;22699;51.034;3.730;2023-07-20T08:42:58;1.77;;;0.70;;
36715;SDS011;22699;51.034;3.730;2023-07-20T08:45:28;2.63;;;0.60;;
36715;SDS011;22699;51.034;3.730;2023-07-20T08:47:58;1.02;;;0.60;;
36715;SDS011;22699;51.034;3.730;2023-07-20T08:50:27;1.17;;;0.50;;
36715;SDS011;22699;51.034;3.730;2023-07-20T08:52:56;2.40;;;1.00;;
36715;SDS011;22699;51.034;3.730;2023-07-20T08:55:22;3.05;;;0.60;;
36715;SDS011;22699;51.034;3.730;2023-07-20T08:57:49;1.40;;;0.70;;
36715;SDS011;22699;51.034;3.730;2023-07-20T09:00:17;2.17;;;0.60;;
36715;SDS011;22699;51.034;3.730;2023-07-20T09:02:45;1.80;;;0.70;;
36715;SDS011;22699;51.034;3.730;2023-07-20T09:05:12;1.90;;;0.60;;
36715;SDS011;22699;51.034;3.730;2023-07-20T09:07:39;1.20;;;0.40;;
36715;SDS011;22699;51.034;3.730;2023-07-20T09:10:05;1.25;;;0.55;;
36715;SDS011;22699;51.034;3.730;2023-07-20T09:12:34;1.80;;;0.57;;
36715;SDS011;22699;51.034;3.730;2023-07-20T09:15:00;0.77;;;0.47;;
36715;SDS011;22699;51.034;3.730;2023-07-20T09:17:26;1.17;;;0.70;;
36715;SDS011;22699;51.034;3.730;2023-07-20T09:19:52;0.63;;;0.40;;
36715;SDS011;22699;51.034;3.730;2023-07-20T09:22:17;3.00;;;0.70;;
36715;SDS011;22699;51.034;3.730;2023-07-20T09:24:43;1.50;;;0.90;;
36715;SDS011;22699;51.034;3.730;2023-07-20T09:27:09;4.38;;;0.52;;
36715;SDS011;22699;51.034;3.730;2023-07-20T09:29:46;1.92;;;0.60;;
36715;SDS011;22699;51.034;3.730;2023-07-20T09:32:19;1.67;;;0.70;;
36715;SDS011;22699;51.034;3.730;2023-07-20T09:34:46;2.63;;;0.60;;
36715;SDS011;22699;51.034;3.730;2023-07-20T09:37:12;1.23;;;0.60;;
36715;SDS011;22699;51.034;3.730;2023-07-20T09:39:44;1.35;;;0.68;;
36715;SDS011;22699;51.034;3.730;2023-07-20T09:42:11;1.23;;;0.57;;
36715;SDS011;22699;51.034;3.730;2023-07-20T09:44:38;1.20;;;0.70;;
36715;SDS011;22699;51.034;3.730;2023-07-20T09:47:04;2.53;;;0.80;;
36715;SDS011;22699;51.034;3.730;2023-07-20T09:49:30;1.80;;;0.70;;
36715;SDS011;22699;51.034;3.730;2023-07-20T09:51:57;2.03;;;0.60;;
36715;SDS011;22699;51.034;3.730;2023-07-20T09:54:25;1.17;;;0.50;;
36715;SDS011;22699;51.034;3.730;2023-07-20T09:56:53;2.53;;;0.68;;
36715;SDS011;22699;51.034;3.730;2023-07-20T09:59:19;2.17;;;0.75;;
36715;SDS011;22699;51.034;3.730;2023-07-20T10:01:44;1.33;;;0.70;;
36715;SDS011;22699;51.034;3.730;2023-07-20T10:04:11;1.65;;;0.95;;
36715;SDS011;22699;51.034;3.730;2023-07-20T10:06:37;0.73;;;0.63;;
36715;SDS011;22699;51.034;3.730;2023-07-20T10:11:34;1.15;;;0.60;;
36715;SDS011;22699;51.034;3.730;2023-07-20T10:14:03;2.33;;;1.05;;
36715;SDS011;22699;51.034;3.730;2023-07-20T10:16:36;1.23;;;0.70;;
36715;SDS011;22699;51.034;3.730;2023-07-20T10:19:15;6.27;;;0.80;;
36715;SDS011;22699;51.034;3.730;2023-07-20T10:21:51;2.22;;;0.40;;
36715;SDS011;22699;51.034;3.730;2023-07-20T10:24:24;1.45;;;0.75;;
36715;SDS011;22699;51.034;3.730;2023-07-20T10:26:50;2.97;;;0.70;;
36715;SDS011;22699;51.034;3.730;2023-07-20T10:29:16;1.48;;;0.63;;
36715;SDS011;22699;51.034;3.730;2023-07-20T10:31:42;1.00;;;0.60;;
36715;SDS011;22699;51.034;3.730;2023-07-20T10:34:08;1.77;;;0.70;;
36715;SDS011;22699;51.034;3.730;2023-07-20T10:36:34;1.15;;;0.60;;
36715;SDS011;22699;51.034;3.730;2023-07-20T10:39:24;2.88;;;0.60;;
36715;SDS011;22699;51.034;3.730;2023-07-20T10:41:59;2.20;;;0.70;;
36715;SDS011;22699;51.034;3.730;2023-07-20T10:44:32;1.25;;;0.60;;
36715;SDS011;22699;51.034;3.730;2023-07-20T10:46:59;0.57;;;0.43;;
36715;SDS011;22699;51.034;3.730;2023-07-20T10:49:25;0.98;;;0.38;;
36715;SDS011;22699;51.034;3.730;2023-07-20T10:51:57;1.00;;;0.38;;
36715;SDS011;22699;51.034;3.730;2023-07-20T10:56:52;1.75;;;0.50;;
36715;SDS011;22699;51.034;3.730;2023-07-20T11:01:49;1.17;;;0.57;;
36715;SDS011;22699;51.034;3.730;2023-07-20T11:04:20;0.88;;;0.57;;
36715;SDS011;22699;51.034;3.730;2023-07-20T11:07:03;1.77;;;0.65;;
36715;SDS011;22699;51.034;3.730;2023-07-20T11:09:33;1.35;;;0.55;;
36715;SDS011;22699;51.034;3.730;2023-07-20T11:12:09;1.98;;;0.80;;
36715;SDS011;22699;51.034;3.730;2023-07-20T11:14:41;1.05;;;0.85;;
36715;SDS011;22699;51.034;3.730;2023-07-20T11:17:11;2.00;;;0.50;;
36715;SDS011;22699;51.034;3.730;2023-07-20T11:19:45;0.82;;;0.60;;
36715;SDS011;22699;51.034;3.730;2023-07-20T11:22:13;1.67;;;0.57;;
36715;SDS011;22699;51.034;3.730;2023-07-20T11:24:42;3.13;;;0.73;;
36715;SDS011;22699;51.034;3.730;2023-07-20T11:27:08;1.10;;;0.70;;
36715;SDS011;22699;51.034;3.730;2023-07-20T11:29:34;0.90;;;0.60;;
36715;SDS011;22699;51.034;3.730;2023-07-20T11:32:01;1.23;;;0.98;;
36715;SDS011;22699;51.034;3.730;2023-07-20T11:34:30;2.20;;;1.60;;
36715;SDS011;22699;51.034;3.730;2023-07-20T11:36:56;3.20;;;1.17;;
36715;SDS011;22699;51.034;3.730;2023-07-20T11:39:22;1.67;;;1.08;;
36715;SDS011;22699;51.034;3.730;2023-07-20T11:41:52;1.67;;;1.15;;
36715;SDS011;22699;51.034;3.730;2023-07-20T11:44:26;2.33;;;1.50;;
36715;SDS011;22699;51.034;3.730;2023-07-20T11:47:05;1.88;;;1.30;;
36715;SDS011;22699;51.034;3.730;2023-07-20T11:49:35;2.25;;;1.60;;
36715;SDS011;22699;51.034;3.730;2023-07-20T11:52:08;3.97;;;1.40;;
36715;SDS011;22699;51.034;3.730;2023-07-20T11:54:35;4.10;;;0.95;;
36715;SDS011;22699;51.034;3.730;2023-07-20T11:57:04;2.30;;;1.35;;
36715;SDS011;22699;51.034;3.730;2023-07-20T11:59:33;1.38;;;1.13;;
36715;SDS011;22699;51.034;3.730;2023-07-20T12:02:02;3.15;;;1.50;;
36715;SDS011;22699;51.034;3.730;2023-07-20T12:04:30;2.38;;;1.60;;
36715;SDS011;22699;51.034;3.730;2023-07-20T12:06:56;1.45;;;1.20;;
36715;SDS011;22699;51.034;3.730;2023-07-20T12:09:22;3.08;;;1.25;;
36715;SDS011;22699;51.034;3.730;2023-07-20T12:11:48;2.72;;;1.45;;
36715;SDS011;22699;51.034;3.730;2023-07-20T12:14:15;2.10;;;1.10;;
36715;SDS011;22699;51.034;3.730;2023-07-20T12:16:41;3.13;;;1.40;;
36715;SDS011;22699;51.034;3.730;2023-07-20T12:21:34;3.35;;;1.20;;
36715;SDS011;22699;51.034;3.730;2023-07-20T12:24:02;3.00;;;1.15;;
36715;SDS011;22699;51.034;3.730;2023-07-20T12:26:31;2.45;;;1.67;;
36715;SDS011;22699;51.034;3.730;2023-07-20T12:28:58;2.17;;;1.20;;
36715;SDS011;22699;51.034;3.730;2023-07-20T12:31:24;3.40;;;1.45;;
36715;SDS011;22699;51.034;3.730;2023-07-20T12:33:51;2.60;;;1.52;;
36715;SDS011;22699;51.034;3.730;2023-07-20T12:36:17;1.92;;;1.42;;
36715;SDS011;22699;51.034;3.730;2023-07-20T12:38:43;3.75;;;1.42;;
36715;SDS011;22699;51.034;3.730;2023-07-20T12:41:09;2.60;;;1.15;;
36715;SDS011;22699;51.034;3.730;2023-07-20T12:43:39;2.25;;;1.25;;
36715;SDS011;22699;51.034;3.730;2023-07-20T12:46:05;2.33;;;1.45;;
36715;SDS011;22699;51.034;3.730;2023-07-20T12:48:31;2.35;;;1.40;;
36715;SDS011;22699;51.034;3.730;2023-07-20T12:50:57;1.58;;;1.13;;
36715;SDS011;22699;51.034;3.730;2023-07-20T12:53:23;1.67;;;1.02;;
36715;SDS011;22699;51.034;3.730;2023-07-20T12:55:49;2.17;;;1.23;;
36715;SDS011;22699;51.034;3.730;2023-07-20T12:58:14;2.50;;;1.00;;
36715;SDS011;22699;51.034;3.730;2023-07-20T13:00:40;3.63;;;0.70;;
36715;SDS011;22699;51.034;3.730;2023-07-20T13:03:06;1.27;;;0.63;;
36715;SDS011;22699;51.034;3.730;2023-07-20T13:05:33;1.48;;;0.90;;
36715;SDS011;22699;51.034;3.730;2023-07-20T13:08:00;2.13;;;0.70;;
36715;SDS011;22699;51.034;3.730;2023-07-20T13:10:27;1.98;;;0.70;;
36715;SDS011;22699;51.034;3.730;2023-07-20T13:12:52;0.63;;;0.50;;
36715;SDS011;22699;51.034;3.730;2023-07-20T13:15:18;0.98;;;0.47;;
36715;SDS011;22699;51.034;3.730;2023-07-20T13:17:44;1.50;;;0.50;;
36715;SDS011;22699;51.034;3.730;2023-07-20T13:20:10;1.60;;;0.47;;
36715;SDS011;22699;51.034;3.730;2023-07-20T13:22:36;1.77;;;0.60;;
36715;SDS011;22699;51.034;3.730;2023-07-20T13:25:03;2.33;;;0.55;;
36715;SDS011;22699;51.034;3.730;2023-07-20T13:27:29;1.95;;;0.55;;
36715;SDS011;22699;51.034;3.730;2023-07-20T13:29:56;0.80;;;0.38;;
36715;SDS011;22699;51.034;3.730;2023-07-20T13:32:22;1.35;;;0.65;;
36715;SDS011;22699;51.034;3.730;2023-07-20T13:34:48;2.28;;;0.40;;
36715;SDS011;22699;51.034;3.730;2023-07-20T13:37:14;1.65;;;0.50;;
36715;SDS011;22699;51.034;3.730;2023-07-20T13:39:41;1.13;;;0.57;;
36715;SDS011;22699;51.034;3.730;2023-07-20T13:42:07;1.30;;;0.50;;
36715;SDS011;22699;51.034;3.730;2023-07-20T13:44:34;1.38;;;0.50;;
36715;SDS011;22699;51.034;3.730;2023-07-20T13:47:00;0.93;;;0.60;;
36715;SDS011;22699;51.034;3.730;2023-07-20T13:49:26;0.40;;;0.38;;
36715;SDS011;22699;51.034;3.730;2023-07-20T13:51:52;1.30;;;0.70;;
36715;SDS011;22699;51.034;3.730;2023-07-20T13:54:18;1.77;;;0.50;;
36715;SDS011;22699;51.034;3.730;2023-07-20T13:56:43;2.20;;;0.68;;
36715;SDS011;22699;51.034;3.730;2023-07-20T13:59:09;1.08;;;0.70;;
36715;SDS011;22699;51.034;3.730;2023-07-20T14:01:35;2.35;;;0.70;;
36715;SDS011;22699;51.034;3.730;2023-07-20T14:04:01;2.20;;;0.70;;
36715;SDS011;22699;51.034;3.730;2023-07-20T14:06:31;2.25;;;1.40;;
36715;SDS011;22699;51.034;3.730;2023-07-20T14:08:58;6.72;;;2.15;;
36715;SDS011;22699;51.034;3.730;2023-07-20T14:11:24;4.95;;;2.72;;
36715;SDS011;22699;51.034;3.730;2023-07-20T14:13:50;5.15;;;2.20;;
36715;SDS011;22699;51.034;3.730;2023-07-20T14:16:18;6.00;;;2.75;;
36715;SDS011;22699;51.034;3.730;2023-07-20T14:18:43;8.10;;;4.10;;
36715;SDS011;22699;51.034;3.730;2023-07-20T14:21:12;5.95;;;3.45;;
36715;SDS011;22699;51.034;3.730;2023-07-20T14:23:37;8.73;;;4.25;;
36715;SDS011;22699;51.034;3.730;2023-07-20T14:26:03;8.55;;;4.38;;
36715;SDS011;22699;51.034;3.730;2023-07-20T14:28:33;5.55;;;4.15;;
36715;SDS011;22699;51.034;3.730;2023-07-20T14:30:59;5.50;;;4.43;;
36715;SDS011;22699;51.034;3.730;2023-07-20T14:33:25;6.50;;;4.47;;
36715;SDS011;22699;51.034;3.730;2023-07-20T14:35:50;8.00;;;4.85;;
36715;SDS011;22699;51.034;3.730;2023-07-20T14:38:16;5.70;;;5.10;;
36715;SDS011;22699;51.034;3.730;2023-07-20T14:40:42;6.70;;;5.13;;
36715;SDS011;22699;51.034;3.730;2023-07-20T14:43:08;6.30;;;5.63;;
36715;SDS011;22699;51.034;3.730;2023-07-20T14:45:34;6.53;;;5.18;;
36715;SDS011;22699;51.034;3.730;2023-07-20T14:48:00;7.30;;;5.05;;
36715;SDS011;22699;51.034;3.730;2023-07-20T14:50:26;5.10;;;4.57;;
36715;SDS011;22699;51.034;3.730;2023-07-20T14:52:51;5.03;;;4.53;;
36715;SDS011;22699;51.034;3.730;2023-07-20T14:55:17;6.47;;;4.40;;
36715;SDS011;22699;51.034;3.730;2023-07-20T14:57:43;3.97;;;3.60;;
36715;SDS011;22699;51.034;3.730;2023-07-20T15:00:09;6.80;;;4.20;;
36715;SDS011;22699;51.034;3.730;2023-07-20T15:02:38;4.53;;;4.13;;